Time;durP1;ratioP1;P1;durP2;ratioP2;P2;SDS_P1;SDS_P2;PMS_P1;PMS_P2;Temp;Humidity;BMP_temperature;BMP_pressure;BME280_temperature;BME280_humidity;BME280_pressure;Samples;Min_cycle;Max_cycle;Signal;HPM_P1;HPM_P2
2023/11/11 00:01:18;;;;;;;17.00;5.97;;;;;;;8.20;100.00;100113.00;5260462;28;20024;-73
2023/11/11 00:03:49;;;;;;;17.77;6.28;;;;;;;8.38;100.00;100123.50;5263003;28;20027;-73
2023/11/11 00:06:20;;;;;;;19.60;5.30;;;;;;;8.37;100.00;100116.50;5262264;28;20067;-74
2023/11/11 00:08:51;;;;;;;11.00;4.20;;;;;;;8.46;100.00;100112.81;5263794;28;20023;-73
2023/11/11 00:11:26;;;;;;;12.55;4.18;;;;;;;8.51;100.00;100118.47;5260995;28;20028;-74
2023/11/11 00:13:57;;;;;;;13.30;3.85;;;;;;;8.53;100.00;100121.84;5262656;28;20055;-74
2023/11/11 00:16:31;;;;;;;13.35;3.95;;;;;;;8.44;100.00;100120.19;5260609;28;20044;-73
2023/11/11 00:19:06;;;;;;;17.02;4.43;;;;;;;8.41;100.00;100123.19;5265652;28;20012;-74
2023/11/11 00:21:42;;;;;;;13.73;3.10;;;;;;;8.36;100.00;100117.50;5262084;28;20027;-73
2023/11/11 00:24:13;;;;;;;10.13;3.50;;;;;;;8.34;100.00;100132.03;5262461;28;20012;-74
2023/11/11 00:26:45;;;;;;;9.35;3.85;;;;;;;8.30;100.00;100139.53;5263942;28;20035;-74
2023/11/11 00:29:16;;;;;;;14.02;4.28;;;;;;;8.31;100.00;100144.72;5260505;28;20024;-74
2023/11/11 00:31:56;;;;;;;11.93;2.97;;;;;;;8.38;100.00;100142.22;5262512;28;20026;-74
2023/11/11 00:34:30;;;;;;;19.10;3.53;;;;;;;8.46;100.00;100144.91;5261164;28;20084;-74
2023/11/11 00:37:03;;;;;;;9.30;3.25;;;;;;;8.49;100.00;100147.25;5262391;28;20365;-74
2023/11/11 00:39:46;;;;;;;11.23;3.08;;;;;;;8.63;100.00;100144.84;5262381;28;20516;-74
2023/11/11 00:42:17;;;;;;;13.68;2.45;;;;;;;8.65;100.00;100150.88;5262663;28;20388;-73
2023/11/11 00:44:53;;;;;;;9.25;2.50;;;;;;;8.67;100.00;100152.38;5268068;28;20477;-73
2023/11/11 00:47:27;;;;;;;10.30;2.75;;;;;;;8.72;100.00;100163.38;5262275;28;20704;-73
2023/11/11 00:50:05;;;;;;;8.75;2.75;;;;;;;8.82;100.00;100155.16;5264542;28;20027;-74
2023/11/11 00:52:36;;;;;;;8.80;2.15;;;;;;;8.69;100.00;100165.59;5264228;28;20432;-73
2023/11/11 00:55:07;;;;;;;8.05;2.25;;;;;;;8.69;100.00;100170.94;5259180;28;20012;-73
2023/11/11 00:57:39;;;;;;;12.18;2.65;;;;;;;8.66;100.00;100171.25;5267128;28;20042;-73
2023/11/11 01:00:10;;;;;;;5.47;2.00;;;;;;;8.60;100.00;100171.94;5264404;28;20026;-73
2023/11/11 01:02:40;;;;;;;9.57;2.05;;;;;;;8.67;100.00;100179.09;5266590;28;20027;-73
2023/11/11 01:05:12;;;;;;;12.27;2.28;;;;;;;8.66;100.00;100188.13;5267690;28;20553;-73
2023/11/11 01:07:42;;;;;;;7.95;2.08;;;;;;;8.68;100.00;100206.69;5266819;28;20535;-73
2023/11/11 01:10:12;;;;;;;6.10;1.90;;;;;;;8.81;100.00;100218.53;5266505;28;20024;-74
2023/11/11 01:12:43;;;;;;;9.57;2.45;;;;;;;8.90;100.00;100200.63;5267064;28;20028;-74
2023/11/11 01:15:13;;;;;;;6.68;1.75;;;;;;;8.83;100.00;100204.97;5268044;28;20046;-74
2023/11/11 01:17:44;;;;;;;11.65;2.00;;;;;;;8.90;100.00;100205.16;5267006;28;20024;-74
2023/11/11 01:20:14;;;;;;;3.17;1.65;;;;;;;8.96;100.00;100204.47;5267752;28;20012;-74
2023/11/11 01:22:45;;;;;;;7.55;2.03;;;;;;;8.89;100.00;100200.81;5269214;28;20050;-73
2023/11/11 01:25:16;;;;;;;12.10;2.53;;;;;;;9.03;100.00;100205.44;5263929;28;20084;-74
2023/11/11 01:27:47;;;;;;;7.82;2.33;;;;;;;8.97;100.00;100220.34;5265574;28;20028;-74
2023/11/11 01:30:19;;;;;;;7.60;2.10;;;;;;;9.02;100.00;100220.66;5268388;28;20114;-74
2023/11/11 01:32:51;;;;;;;13.13;2.55;;;;;;;9.09;100.00;100223.50;5268692;28;20170;-74
2023/11/11 01:35:22;;;;;;;7.00;2.40;;;;;;;9.12;100.00;100222.31;5263463;28;20111;-73
2023/11/11 01:37:52;;;;;;;7.80;2.13;;;;;;;9.05;100.00;100219.50;5267526;28;20532;-73
2023/11/11 01:40:24;;;;;;;6.38;2.00;;;;;;;9.05;100.00;100211.47;5266054;28;20058;-73
2023/11/11 01:42:54;;;;;;;3.75;2.03;;;;;;;8.98;100.00;100213.97;5265331;28;20016;-73
2023/11/11 01:45:25;;;;;;;5.93;1.75;;;;;;;9.03;100.00;100210.78;5267763;28;20474;-73
2023/11/11 01:47:56;;;;;;;13.18;2.38;;;;;;;8.92;100.00;100209.31;5270261;28;20012;-73
2023/11/11 01:50:26;;;;;;;20.30;2.95;;;;;;;8.83;100.00;100207.66;5268016;28;20515;-73
2023/11/11 01:52:57;;;;;;;11.45;2.67;;;;;;;8.76;100.00;100214.69;5272398;28;20016;-73
2023/11/11 01:55:28;;;;;;;11.90;3.80;;;;;;;8.66;100.00;100225.56;5268919;28;20477;-74
2023/11/11 01:58:00;;;;;;;11.90;2.75;;;;;;;8.66;100.00;100227.41;5265251;28;20095;-74
2023/11/11 02:00:35;;;;;;;10.70;2.97;;;;;;;8.65;100.00;100234.59;5271245;28;20019;-75
2023/11/11 02:03:06;;;;;;;11.10;3.20;;;;;;;8.58;100.00;100236.25;5267374;27;20425;-74
2023/11/11 02:05:37;;;;;;;11.88;3.95;;;;;;;8.53;100.00;100233.25;5264604;28;20020;-72
2023/11/11 02:08:17;;;;;;;12.95;4.07;;;;;;;8.44;100.00;100243.16;5265140;28;20151;-73
2023/11/11 02:10:48;;;;;;;15.25;3.95;;;;;;;8.36;100.00;100245.81;5267542;28;20024;-73
2023/11/11 02:13:19;;;;;;;16.33;4.40;;;;;;;8.38;100.00;100243.78;5267890;28;20043;-73
2023/11/11 02:15:49;;;;;;;13.57;4.28;;;;;;;8.43;100.00;100251.31;5265462;28;20727;-73
2023/11/11 02:18:20;;;;;;;22.73;4.95;;;;;;;8.35;100.00;100246.78;5267375;28;20076;-73
2023/11/11 02:20:50;;;;;;;15.50;4.28;;;;;;;8.28;100.00;100243.94;5271898;28;20016;-73
2023/11/11 02:23:21;;;;;;;13.07;4.30;;;;;;;8.20;100.00;100238.59;5268726;28;20447;-74
2023/11/11 02:25:52;;;;;;;23.10;5.18;;;;;;;8.15;100.00;100240.09;5263046;28;20399;-74
2023/11/11 02:28:23;;;;;;;20.55;4.57;;;;;;;8.08;100.00;100244.41;5267113;28;20019;-74
2023/11/11 02:30:53;;;;;;;8.00;3.65;;;;;;;7.99;100.00;100255.09;5267480;28;20032;-74
2023/11/11 02:33:25;;;;;;;12.27;4.28;;;;;;;7.95;100.00;100259.06;5267619;28;20023;-74
2023/11/11 02:35:56;;;;;;;21.08;5.00;;;;;;;7.91;100.00;100252.38;5269547;28;20022;-73
2023/11/11 02:38:27;;;;;;;19.70;4.88;;;;;;;7.87;100.00;100255.53;5268279;28;20454;-73
2023/11/11 02:40:57;;;;;;;21.10;5.13;;;;;;;7.81;100.00;100257.03;5269045;28;20015;-73
2023/11/11 02:43:28;;;;;;;26.98;4.82;;;;;;;7.77;100.00;100261.84;5265518;28;20392;-73
2023/11/11 02:45:58;;;;;;;20.52;5.20;;;;;;;7.74;100.00;100267.53;5268986;28;20027;-74
2023/11/11 02:48:29;;;;;;;17.88;5.13;;;;;;;7.69;100.00;100264.53;5266423;28;20024;-73
2023/11/11 02:51:00;;;;;;;14.90;5.10;;;;;;;7.69;100.00;100269.03;5269862;28;20357;-74
2023/11/11 02:53:31;;;;;;;17.92;5.85;;;;;;;7.70;100.00;100268.03;5266904;28;20030;-73
2023/11/11 02:56:01;;;;;;;13.70;5.32;;;;;;;7.67;100.00;100266.50;5264425;28;20028;-73
2023/11/11 02:58:42;;;;;;;18.50;5.70;;;;;;;7.62;100.00;100276.00;5264895;28;20024;-74
2023/11/11 03:01:21;;;;;;;16.75;6.28;;;;;;;7.60;100.00;100276.16;5264579;28;20728;-73
2023/11/11 03:03:51;;;;;;;19.67;5.18;;;;;;;7.56;100.00;100277.47;5265370;28;20048;-73
2023/11/11 03:06:24;;;;;;;22.27;6.13;;;;;;;7.53;100.00;100281.31;5266121;28;20043;-73
2023/11/11 03:08:55;;;;;;;12.25;5.65;;;;;;;7.62;100.00;100284.84;5264844;28;20023;-74
2023/11/11 03:11:30;;;;;;;16.90;6.30;;;;;;;7.62;100.00;100284.00;5259884;28;20024;-73
2023/11/11 03:14:01;;;;;;;16.85;5.78;;;;;;;7.47;100.00;100286.44;5267807;28;20434;-73
2023/11/11 03:16:36;;;;;;;16.73;6.30;;;;;;;7.45;100.00;100285.78;5266078;28;20067;-73
2023/11/11 03:19:17;;;;;;;25.40;7.55;;;;;;;7.41;100.00;100297.75;5263436;28;20461;-73
2023/11/11 03:21:56;;;;;;;13.52;6.10;;;;;;;7.42;100.00;100302.94;5265964;28;20043;-74
2023/11/11 03:24:27;;;;;;;17.60;5.90;;;;;;;7.40;100.00;100306.75;5260960;28;20028;-74
2023/11/11 03:26:58;;;;;;;18.02;5.95;;;;;;;7.41;100.00;100308.44;5266234;28;20027;-74
2023/11/11 03:29:29;;;;;;;18.48;6.63;;;;;;;7.39;100.00;100305.94;5265680;28;20020;-74
2023/11/11 03:31:59;;;;;;;19.73;6.60;;;;;;;7.38;100.00;100308.72;5267271;28;20015;-74
2023/11/11 03:34:30;;;;;;;19.27;6.80;;;;;;;7.36;100.00;100314.25;5265428;28;20027;-74
2023/11/11 03:37:00;;;;;;;27.35;8.18;;;;;;;7.32;100.00;100320.88;5264534;28;20111;-74
2023/11/11 03:39:32;;;;;;;23.73;7.47;;;;;;;7.33;100.00;100317.25;5265743;28;20016;-74
2023/11/11 03:42:03;;;;;;;20.67;7.85;;;;;;;7.25;100.00;100314.50;5265298;28;20553;-73
2023/11/11 03:44:33;;;;;;;23.80;8.23;;;;;;;7.26;100.00;100318.84;5265744;28;20027;-73
2023/11/11 03:47:04;;;;;;;24.23;8.65;;;;;;;7.22;100.00;100321.00;5263160;28;20081;-73
2023/11/11 03:49:35;;;;;;;26.35;8.55;;;;;;;7.24;100.00;100321.69;5265169;28;20027;-73
2023/11/11 03:52:05;;;;;;;28.80;10.05;;;;;;;7.15;100.00;100319.97;5265411;28;20023;-73
2023/11/11 03:54:36;;;;;;;28.27;9.82;;;;;;;7.15;100.00;100321.78;5265529;28;20045;-74
2023/11/11 03:57:06;;;;;;;25.60;9.77;;;;;;;7.14;100.00;100328.97;5262277;28;20019;-73
2023/11/11 03:59:37;;;;;;;28.90;9.48;;;;;;;7.15;100.00;100329.78;5263693;28;20118;-73
2023/11/11 04:02:07;;;;;;;29.65;11.55;;;;;;;7.15;100.00;100335.13;5266156;28;20012;-73
2023/11/11 04:04:39;;;;;;;27.00;10.70;;;;;;;7.16;100.00;100331.47;5264890;28;20458;-73
2023/11/11 04:07:09;;;;;;;30.38;11.60;;;;;;;7.11;100.00;100333.75;5264850;28;20027;-73
2023/11/11 04:09:41;;;;;;;30.20;12.18;;;;;;;7.22;100.00;100331.66;5262367;28;20031;-73
2023/11/11 04:12:12;;;;;;;25.75;11.40;;;;;;;7.25;100.00;100331.34;5263436;28;20035;-73
2023/11/11 04:14:42;;;;;;;35.97;12.63;;;;;;;7.23;100.00;100337.88;5263503;28;20024;-73
2023/11/11 04:17:13;;;;;;;29.20;12.07;;;;;;;7.20;100.00;100336.31;5264380;28;20465;-73
2023/11/11 04:19:46;;;;;;;31.33;12.27;;;;;;;7.24;100.00;100339.53;5264501;28;20681;-73
2023/11/11 04:22:16;;;;;;;38.75;12.50;;;;;;;7.16;100.00;100342.13;5261835;28;20103;-73
2023/11/11 04:24:48;;;;;;;33.08;12.65;;;;;;;7.21;100.00;100353.16;5259425;28;20095;-73
2023/11/11 04:27:18;;;;;;;31.98;14.25;;;;;;;7.34;100.00;100344.75;5262881;28;20459;-73
2023/11/11 04:29:49;;;;;;;36.55;13.60;;;;;;;7.32;100.00;100354.75;5263097;28;20020;-73
2023/11/11 04:32:20;;;;;;;35.08;13.43;;;;;;;7.32;100.00;100350.22;5263479;28;20030;-73
2023/11/11 04:34:51;;;;;;;32.67;14.73;;;;;;;7.32;100.00;100349.41;5263154;28;20036;-73
2023/11/11 04:37:21;;;;;;;38.15;13.57;;;;;;;7.26;100.00;100359.72;5263076;28;20030;-73
2023/11/11 04:39:57;;;;;;;38.65;15.82;;;;;;;7.21;100.00;100359.34;5265128;28;20034;-73
2023/11/11 04:42:28;;;;;;;43.55;14.60;;;;;;;7.24;100.00;100360.88;5263463;28;20051;-73
2023/11/11 04:44:59;;;;;;;37.40;14.75;;;;;;;7.20;100.00;100362.16;5263132;28;20095;-73
2023/11/11 04:47:30;;;;;;;39.33;15.98;;;;;;;7.20;100.00;100362.16;5263830;28;20089;-73
2023/11/11 04:50:02;;;;;;;40.88;14.68;;;;;;;7.19;100.00;100360.50;5267115;28;20013;-73
2023/11/11 04:52:35;;;;;;;35.83;14.52;;;;;;;7.07;100.00;100367.06;5266435;28;20035;-73
2023/11/11 04:55:06;;;;;;;50.40;15.50;;;;;;;7.05;100.00;100369.06;5267238;28;20012;-73
2023/11/11 04:57:37;;;;;;;45.35;14.88;;;;;;;7.00;100.00;100366.88;5268157;28;20402;-74
2023/11/11 05:00:09;;;;;;;35.95;14.80;;;;;;;6.99;100.00;100368.69;5266823;28;20016;-73
2023/11/11 05:02:40;;;;;;;44.53;15.88;;;;;;;7.04;100.00;100365.56;5267313;28;20040;-73
2023/11/11 05:05:10;;;;;;;45.95;15.70;;;;;;;6.97;100.00;100354.66;5267395;28;20393;-73
2023/11/11 05:07:41;;;;;;;37.67;15.40;;;;;;;6.92;100.00;100356.94;5263668;28;20389;-73
2023/11/11 05:10:12;;;;;;;45.50;15.60;;;;;;;6.85;100.00;100360.41;5266460;28;20023;-73
2023/11/11 05:12:43;;;;;;;39.85;15.82;;;;;;;6.86;100.00;100362.91;5267811;28;20028;-73
2023/11/11 05:15:14;;;;;;;40.00;15.45;;;;;;;6.85;100.00;100369.25;5268117;28;20099;-73
2023/11/11 05:17:45;;;;;;;44.50;14.98;;;;;;;6.86;100.00;100367.41;5268657;28;20024;-73
2023/11/11 05:20:17;;;;;;;45.97;14.73;;;;;;;6.85;100.00;100371.91;5267992;28;20016;-73
2023/11/11 05:22:47;;;;;;;47.25;14.48;;;;;;;6.81;100.00;100377.69;5262558;28;20078;-73
2023/11/11 05:25:18;;;;;;;41.35;14.35;;;;;;;6.80;100.00;100384.84;5260010;28;20102;-74
2023/11/11 05:27:50;;;;;;;45.40;15.65;;;;;;;6.78;100.00;100386.84;5263429;28;20078;-73
2023/11/11 05:30:22;;;;;;;42.15;14.40;;;;;;;6.74;100.00;100385.47;5265918;28;20065;-74
2023/11/11 05:32:53;;;;;;;46.88;15.15;;;;;;;6.67;100.00;100385.22;5262924;28;20386;-73
2023/11/11 05:35:24;;;;;;;36.15;13.75;;;;;;;6.66;100.00;100383.56;5264122;28;20065;-73
2023/11/11 05:37:54;;;;;;;37.45;14.65;;;;;;;6.62;100.00;100389.34;5265518;28;20465;-73
2023/11/11 05:40:26;;;;;;;34.33;13.88;;;;;;;6.62;100.00;100392.00;5264066;28;20066;-73
2023/11/11 05:42:57;;;;;;;41.00;13.60;;;;;;;6.54;100.00;100389.28;5266139;28;20024;-73
2023/11/11 05:45:27;;;;;;;40.85;14.73;;;;;;;6.54;100.00;100389.28;5261808;28;20081;-73
2023/11/11 05:47:57;;;;;;;41.17;13.77;;;;;;;6.45;100.00;100391.00;5266095;28;20381;-73
2023/11/11 05:50:28;;;;;;;41.20;14.77;;;;;;;6.48;100.00;100396.06;5266803;28;20012;-73
2023/11/11 05:52:58;;;;;;;42.03;15.05;;;;;;;6.54;100.00;100400.78;5267948;28;20024;-73
2023/11/11 05:55:29;;;;;;;33.92;13.55;;;;;;;6.49;100.00;100400.38;5267015;28;20016;-73
2023/11/11 05:57:59;;;;;;;43.53;13.73;;;;;;;6.47;100.00;100397.84;5266138;28;20111;-74
2023/11/11 06:00:30;;;;;;;35.35;14.82;;;;;;;6.44;100.00;100406.16;5266228;28;20047;-72
2023/11/11 06:03:00;;;;;;;42.28;14.90;;;;;;;6.47;100.00;100407.69;5265417;28;20524;-72
2023/11/11 06:05:34;;;;;;;35.38;13.48;;;;;;;6.47;100.00;100415.66;5263864;28;20362;-73
2023/11/11 06:08:04;;;;;;;37.55;13.60;;;;;;;6.47;100.00;100411.19;5265356;28;20027;-73
2023/11/11 06:10:36;;;;;;;38.63;13.35;;;;;;;6.49;100.00;100411.06;5266225;28;20039;-73
2023/11/11 06:13:07;;;;;;;41.90;14.20;;;;;;;6.48;100.00;100418.22;5266700;28;20031;-73
2023/11/11 06:15:38;;;;;;;42.35;13.48;;;;;;;6.44;100.00;100424.81;5267062;28;20043;-73
2023/11/11 06:18:09;;;;;;;36.97;13.20;;;;;;;6.39;100.00;100424.44;5266048;28;20055;-73
2023/11/11 06:20:39;;;;;;;41.55;13.43;;;;;;;6.36;100.00;100429.22;5266651;28;20052;-73
2023/11/11 06:23:11;;;;;;;35.30;12.98;;;;;;;6.36;100.00;100434.53;5263254;28;20579;-73
2023/11/11 06:25:41;;;;;;;31.95;13.35;;;;;;;6.36;100.00;100440.72;5261282;28;20024;-72
2023/11/11 06:28:12;;;;;;;32.72;12.98;;;;;;;6.26;100.00;100436.41;5265334;28;20024;-73
2023/11/11 06:30:43;;;;;;;38.00;12.57;;;;;;;6.24;100.00;100439.25;5266010;28;20027;-73
2023/11/11 06:33:13;;;;;;;42.95;13.60;;;;;;;6.23;100.00;100446.41;5265667;28;20024;-73
2023/11/11 06:35:43;;;;;;;34.08;12.20;;;;;;;6.20;100.00;100443.19;5265595;28;20027;-73
2023/11/11 06:38:14;;;;;;;33.70;12.75;;;;;;;6.18;100.00;100450.50;5265281;28;20016;-73
2023/11/11 06:40:45;;;;;;;40.40;12.82;;;;;;;6.17;100.00;100448.78;5261324;28;20026;-73
2023/11/11 06:43:17;;;;;;;36.70;12.80;;;;;;;6.19;100.00;100454.84;5258803;28;20016;-73
2023/11/11 06:45:47;;;;;;;36.50;12.15;;;;;;;6.18;100.00;100467.31;5260247;28;20024;-74
2023/11/11 06:48:18;;;;;;;45.63;14.43;;;;;;;6.27;100.00;100462.06;5268180;28;20436;-74
2023/11/11 06:50:49;;;;;;;34.92;12.02;;;;;;;6.28;100.00;100469.09;5269972;28;20111;-74
2023/11/11 06:53:20;;;;;;;33.53;12.70;;;;;;;6.36;100.00;100475.34;5269080;28;20388;-74
2023/11/11 06:55:51;;;;;;;32.70;13.10;;;;;;;6.35;100.00;100470.16;5270548;28;20027;-74
2023/11/11 06:58:22;;;;;;;37.47;12.70;;;;;;;6.36;100.00;100478.00;5268394;28;20502;-74
2023/11/11 07:00:52;;;;;;;42.30;14.07;;;;;;;6.38;100.00;100483.22;5267118;28;20141;-72
2023/11/11 07:03:23;;;;;;;43.08;13.93;;;;;;;6.41;100.00;100490.88;5268051;28;20011;-72
2023/11/11 07:05:56;;;;;;;39.90;13.73;;;;;;;6.42;100.00;100493.41;5266502;28;20146;-73
2023/11/11 07:08:28;;;;;;;33.70;13.25;;;;;;;6.38;100.00;100500.03;5264766;28;20040;-72
2023/11/11 07:11:00;;;;;;;41.25;13.60;;;;;;;6.34;100.00;100501.31;5259928;28;20106;-72
2023/11/11 07:13:31;;;;;;;42.45;14.43;;;;;;;6.46;100.00;100502.78;5265971;28;20500;-72
2023/11/11 07:16:01;;;;;;;44.20;13.10;;;;;;;6.56;100.00;100502.72;5269804;28;20024;-72
2023/11/11 07:18:38;;;;;;;36.72;13.40;;;;;;;6.53;100.00;100511.03;5268495;28;20362;-73
2023/11/11 07:21:21;;;;;;;36.30;12.82;;;;;;;6.63;100.00;100513.66;5247370;28;20029;-72
2023/11/11 07:23:53;;;;;;;37.30;13.05;;;;;;;6.82;100.00;100510.00;5263839;28;20061;-72
2023/11/11 07:26:23;;;;;;;36.42;12.27;;;;;;;7.08;100.00;100520.78;5261027;28;20429;-72
2023/11/11 07:28:54;;;;;;;39.30;12.43;;;;;;;7.36;100.00;100522.38;5265006;28;20036;-73
2023/11/11 07:31:24;;;;;;;29.75;11.68;;;;;;;7.51;100.00;100518.19;5264819;28;20018;-72
2023/11/11 07:33:55;;;;;;;30.35;10.88;;;;;;;7.61;100.00;100522.59;5261169;28;20409;-72
2023/11/11 07:36:26;;;;;;;20.02;9.88;;;;;;;7.86;100.00;100513.78;5265784;28;20093;-73
2023/11/11 07:38:57;;;;;;;27.80;9.02;;;;;;;8.05;100.00;100518.91;5264040;28;20041;-73
2023/11/11 07:41:27;;;;;;;20.90;7.95;;;;;;;8.37;100.00;100519.25;5263981;28;20015;-73
2023/11/11 07:44:04;;;;;;;22.45;8.80;;;;;;;8.49;100.00;100516.16;5266200;28;20698;-73
2023/11/11 07:46:35;;;;;;;30.80;8.93;;;;;;;8.67;100.00;100518.72;5263908;28;20118;-73
2023/11/11 07:49:12;;;;;;;18.60;6.97;;;;;;;8.76;100.00;100517.75;5264519;28;20028;-73
2023/11/11 07:51:43;;;;;;;15.57;6.85;;;;;;;8.63;100.00;100519.22;5257487;28;20031;-73
2023/11/11 07:54:14;;;;;;;17.52;7.13;;;;;;;8.68;100.00;100530.25;5262123;28;20430;-73
2023/11/11 07:56:45;;;;;;;19.00;6.93;;;;;;;8.93;100.00;100515.94;5260228;28;20048;-74
2023/11/11 07:59:15;;;;;;;18.13;6.57;;;;;;;9.20;100.00;100519.38;5266414;28;20030;-73
2023/11/11 08:01:46;;;;;;;16.92;5.85;;;;;;;9.60;100.00;100524.75;5266107;28;20032;-73
2023/11/11 08:04:16;;;;;;;15.75;5.70;;;;;;;9.35;100.00;100523.06;5256430;28;20020;-73
2023/11/11 08:06:47;;;;;;;11.25;5.78;;;;;;;9.24;100.00;100532.25;5253790;28;20425;-73
2023/11/11 08:09:17;;;;;;;17.05;6.40;;;;;;;9.56;100.00;100531.44;5254709;28;20042;-73
2023/11/11 08:11:48;;;;;;;14.40;5.90;;;;;;;9.39;100.00;100535.13;5252821;28;20069;-73
2023/11/11 08:14:18;;;;;;;16.75;5.22;;;;;;;9.20;100.00;100536.25;5255953;28;20016;-73
2023/11/11 08:16:49;;;;;;;15.38;5.40;;;;;;;9.27;100.00;100539.09;5260037;28;20058;-73
2023/11/11 08:19:19;;;;;;;13.57;5.40;;;;;;;9.14;100.00;100536.09;5260906;28;20013;-73
2023/11/11 08:21:49;;;;;;;16.70;5.35;;;;;;;9.03;100.00;100543.41;5257006;28;20032;-73
2023/11/11 08:24:20;;;;;;;17.45;5.70;;;;;;;8.98;100.00;100548.41;5254274;28;20030;-73
2023/11/11 08:26:51;;;;;;;14.93;5.55;;;;;;;8.92;100.00;100551.75;5254867;28;20170;-73
2023/11/11 08:29:21;;;;;;;20.30;6.05;;;;;;;8.94;100.00;100547.09;5253703;28;20027;-73
2023/11/11 08:31:52;;;;;;;11.27;5.57;;;;;;;8.90;100.00;100542.22;5262185;28;20032;-73
2023/11/11 08:34:29;;;;;;;14.95;5.20;;;;;;;8.86;100.00;100544.38;5250983;28;20026;-73
2023/11/11 08:36:59;;;;;;;15.00;6.03;;;;;;;8.86;100.00;100546.22;5261554;28;20027;-73
2023/11/11 08:39:31;;;;;;;15.75;5.40;;;;;;;8.93;100.00;100549.91;5254517;28;20073;-73
2023/11/11 08:42:03;;;;;;;18.23;5.88;;;;;;;9.04;100.00;100542.41;5256512;28;20028;-73
2023/11/11 08:44:33;;;;;;;16.98;5.72;;;;;;;9.06;100.00;100553.78;5261565;28;20093;-72
2023/11/11 08:47:04;;;;;;;11.52;4.78;;;;;;;9.10;100.00;100556.16;5260595;28;20153;-73
2023/11/11 08:49:34;;;;;;;22.48;9.55;;;;;;;9.08;100.00;100553.63;5261472;28;20013;-73
2023/11/11 08:52:05;;;;;;;19.67;7.07;;;;;;;9.02;100.00;100551.59;5251606;28;20038;-73
2023/11/11 08:54:35;;;;;;;13.95;6.22;;;;;;;8.93;100.00;100555.25;5259774;28;20051;-73
2023/11/11 08:57:06;;;;;;;21.88;6.10;;;;;;;8.87;100.00;100558.56;5258210;28;20019;-73
2023/11/11 08:59:36;;;;;;;23.52;7.20;;;;;;;8.95;100.00;100567.47;5255794;28;20453;-73
2023/11/11 09:02:07;;;;;;;17.95;6.88;;;;;;;8.95;100.00;100567.47;5254047;28;20032;-73
2023/11/11 09:04:39;;;;;;;20.70;8.38;;;;;;;9.09;100.00;100576.72;5264354;28;20028;-73
2023/11/11 09:07:09;;;;;;;20.73;7.22;;;;;;;9.16;100.00;100579.56;5255975;28;20031;-73
2023/11/11 09:09:40;;;;;;;18.33;6.65;;;;;;;9.11;100.00;100565.84;5257549;28;20028;-73
2023/11/11 09:12:10;;;;;;;16.95;6.28;;;;;;;9.07;100.00;100568.84;5260778;28;20028;-73
2023/11/11 09:14:40;;;;;;;21.38;6.82;;;;;;;9.14;100.00;100570.88;5255905;28;20542;-73
2023/11/11 09:17:12;;;;;;;48.97;26.08;;;;;;;9.23;100.00;100585.94;5257493;28;20028;-73
2023/11/11 09:19:42;;;;;;;22.38;8.15;;;;;;;9.24;100.00;100575.09;5257715;28;20054;-73
2023/11/11 09:22:13;;;;;;;19.70;7.47;;;;;;;9.28;100.00;100575.56;5259645;28;20114;-73
2023/11/11 09:24:44;;;;;;;19.80;12.18;;;;;;;9.20;100.00;100576.41;5253527;28;20032;-73
2023/11/11 09:27:14;;;;;;;16.23;6.10;;;;;;;9.07;100.00;100574.19;5256411;28;20036;-73
2023/11/11 09:29:45;;;;;;;15.68;6.03;;;;;;;9.08;100.00;100575.03;5259658;28;20020;-73
2023/11/11 09:32:15;;;;;;;17.50;6.55;;;;;;;9.14;100.00;100570.88;5261423;28;20106;-73
2023/11/11 09:34:47;;;;;;;17.45;6.35;;;;;;;9.36;100.00;100577.44;5254224;28;20059;-73
2023/11/11 09:37:18;;;;;;;19.90;6.25;;;;;;;9.23;100.00;100570.72;5264584;28;20527;-73
2023/11/11 09:39:49;;;;;;;18.67;6.28;;;;;;;9.18;100.00;100573.03;5267273;28;20012;-73
2023/11/11 09:42:20;;;;;;;15.73;6.22;;;;;;;9.20;100.00;100568.38;5259542;28;20396;-73
2023/11/11 09:44:50;;;;;;;16.02;5.68;;;;;;;9.21;100.00;100571.91;5266543;28;20518;-73
2023/11/11 09:47:26;;;;;;;20.25;5.78;;;;;;;9.14;100.00;100574.41;5264049;28;20032;-74
2023/11/11 09:49:56;;;;;;;16.13;6.25;;;;;;;9.24;100.00;100574.25;5259228;28;20134;-73
2023/11/11 09:52:30;;;;;;;15.48;5.65;;;;;;;9.52;100.00;100574.78;5265301;28;20024;-73
2023/11/11 09:55:01;;;;;;;12.68;5.85;;;;;;;9.84;100.00;100577.47;5261691;28;20385;-73
2023/11/11 09:57:33;;;;;;;9.23;4.28;;;;;;;10.12;100.00;100571.75;5258449;28;20017;-73
2023/11/11 10:00:10;;;;;;;12.55;4.85;;;;;;;10.61;100.00;100572.50;5252690;28;20069;-73
2023/11/11 10:02:41;;;;;;;18.80;4.88;;;;;;;10.72;100.00;100573.13;5257464;28;20078;-74
2023/11/11 10:05:12;;;;;;;11.18;4.43;;;;;;;10.81;100.00;100577.47;5254606;28;20542;-73
2023/11/11 10:07:43;;;;;;;9.95;3.50;;;;;;;10.91;100.00;100588.81;5255872;28;20074;-73
2023/11/11 10:10:15;;;;;;;13.05;3.92;;;;;;;11.23;100.00;100592.34;5259115;28;20024;-73
2023/11/11 10:12:45;;;;;;;10.30;5.00;;;;;;;11.48;100.00;100596.53;5255981;28;20496;-73
2023/11/11 10:15:16;;;;;;;9.88;3.85;;;;;;;11.57;100.00;100605.38;5259130;28;20035;-73
2023/11/11 10:17:46;;;;;;;12.27;3.97;;;;;;;11.87;100.00;100607.22;5253518;28;20024;-73
2023/11/11 10:20:17;;;;;;;9.98;4.30;;;;;;;11.95;100.00;100602.78;5260157;28;20027;-73
2023/11/11 10:22:48;;;;;;;7.32;3.97;;;;;;;11.83;100.00;100613.97;5248427;28;20394;-73
2023/11/11 10:25:19;;;;;;;8.65;3.42;;;;;;;11.58;100.00;100612.44;5254965;28;20095;-73
2023/11/11 10:27:51;;;;;;;12.02;3.53;;;;;;;11.59;100.00;100617.63;5248077;28;20139;-73
2023/11/11 10:30:24;;;;;;;12.40;3.35;;;;;;;11.45;100.00;100607.66;5259845;28;20033;-73
2023/11/11 10:32:56;;;;;;;12.70;3.33;;;;;;;11.38;100.00;100610.19;5260230;28;20031;-73
2023/11/11 10:35:27;;;;;;;10.90;3.70;;;;;;;11.45;100.00;100607.66;5256924;28;20051;-73
2023/11/11 10:37:57;;;;;;;10.00;3.78;;;;;;;11.57;100.00;100605.38;5252148;28;20020;-73
2023/11/11 10:40:28;;;;;;;11.70;3.38;;;;;;;11.70;100.00;100610.16;5248008;28;20034;-73
2023/11/11 10:42:59;;;;;;;7.95;3.13;;;;;;;11.78;100.00;100612.78;5259879;28;20469;-73
2023/11/11 10:45:30;;;;;;;8.48;2.90;;;;;;;11.76;100.00;100617.53;5252827;28;20077;-73
2023/11/11 10:48:01;;;;;;;10.07;3.08;;;;;;;11.81;100.00;100602.53;5258050;28;20020;-73
2023/11/11 10:50:33;;;;;;;11.98;3.25;;;;;;;11.96;100.00;100607.16;5252553;28;20024;-73
2023/11/11 10:53:04;;;;;;;15.50;4.05;;;;;;;11.87;100.00;100601.84;5252677;28;20023;-73
2023/11/11 10:55:37;;;;;;;12.55;3.33;;;;;;;12.09;100.00;100605.50;5249943;28;20028;-73
2023/11/11 10:58:10;;;;;;;6.47;3.20;;;;;;;12.23;100.00;100603.03;5252860;28;20539;-73
2023/11/11 11:00:42;;;;;;;11.80;3.15;;;;;;;12.08;100.00;100606.53;5267277;28;20067;-73
2023/11/11 11:03:14;;;;;;;9.13;2.88;;;;;;;11.91;100.00;100607.69;5262298;28;20091;-73
2023/11/11 11:05:45;;;;;;;10.23;4.95;;;;;;;11.77;100.00;100597.69;5261271;28;20031;-73
2023/11/11 11:08:34;;;;;;;12.65;7.13;;;;;;;11.87;100.00;100596.47;5258619;28;20020;-73
2023/11/11 11:11:08;;;;;;;11.82;3.85;;;;;;;11.98;100.00;100587.13;5254120;28;20036;-73
2023/11/11 11:13:40;;;;;;;9.52;2.67;;;;;;;12.06;100.00;100597.81;5259071;28;20023;-73
2023/11/11 11:16:16;;;;;;;9.43;3.03;;;;;;;12.06;100.00;100597.81;5266527;28;20108;-74
2023/11/11 11:18:54;;;;;;;9.73;2.60;;;;;;;11.98;100.00;100600.56;5258505;28;20835;-73
2023/11/11 11:21:28;;;;;;;8.30;2.42;;;;;;;11.75;100.00;100594.38;5251125;28;20037;-73
2023/11/11 11:23:58;;;;;;;10.43;3.17;;;;;;;11.65;100.00;100600.81;5258668;28;20036;-73
2023/11/11 11:26:29;;;;;;;5.95;2.35;;;;;;;11.67;100.00;100598.75;5257907;28;20028;-73
2023/11/11 11:29:08;;;;;;;8.55;2.60;;;;;;;11.65;100.00;100602.66;5259730;28;20217;-73
2023/11/11 11:32:06;;;;;;;7.28;2.53;;;;;;;11.72;100.00;100598.22;5252216;28;20150;-73
2023/11/11 11:34:43;;;;;;;13.35;2.95;;;;;;;11.59;100.00;100606.03;5255448;28;20065;-73